createdAt,value
2023-04-09T00:01:28.996Z,90.62
2023-04-09T00:03:30.896Z,90.57
2023-04-09T00:07:34.172Z,90.46
2023-04-09T00:11:36.913Z,90.75
2023-04-09T00:13:39.762Z,90.72
2023-04-09T00:15:40.555Z,90.55
2023-04-09T00:17:41.958Z,90.47
2023-04-09T00:19:43.089Z,90.43
2023-04-09T00:23:46.608Z,90.5
2023-04-09T00:25:48.610Z,90.42
2023-04-09T00:27:50.135Z,90.44
2023-04-09T00:29:51.521Z,90.26
2023-04-09T00:33:54.935Z,89.94
2023-04-09T00:35:56.819Z,90.03
2023-04-09T00:39:59.394Z,89.97
2023-04-09T00:44:02.083Z,89.86
2023-04-09T00:46:03.340Z,89.83
2023-04-09T00:50:06.852Z,90.06
2023-04-09T00:54:10.107Z,89.7
2023-04-09T00:56:11.415Z,89.63
2023-04-09T01:00:14.355Z,89.37
2023-04-09T01:02:15.574Z,89.97
2023-04-09T01:06:18.305Z,90.19
2023-04-09T01:10:21.057Z,90.4
2023-04-09T01:12:22.197Z,90.57
2023-04-09T01:16:25.658Z,90.25
2023-04-09T01:18:26.849Z,90.15
2023-04-09T01:22:29.883Z,90.26
2023-04-09T01:26:32.682Z,90.58
2023-04-09T01:28:33.887Z,90.77
2023-04-09T01:32:37.289Z,90.54
2023-04-09T01:36:40.349Z,90.43
2023-04-09T01:38:41.821Z,90.57
2023-04-09T01:42:44.781Z,91.29
2023-04-09T01:44:46.263Z,91.41
2023-04-09T01:48:48.419Z,91.68
2023-04-09T01:52:50.951Z,91.88
2023-04-09T01:54:52.206Z,91.89
2023-04-09T01:58:54.941Z,91.92
2023-04-09T02:00:56.658Z,91.95
2023-04-09T02:05:00.160Z,91.94
2023-04-09T02:09:02.549Z,92.02
2023-04-09T02:11:04.524Z,91.98
2023-04-09T02:15:07.753Z,91.9
2023-04-09T02:19:10.049Z,91.67
2023-04-09T02:21:11.904Z,91.6
2023-04-09T02:25:14.696Z,91.58
2023-04-09T02:27:16.124Z,91.6
2023-04-09T02:29:17.464Z,91.6
2023-04-09T02:31:19.229Z,91.63
2023-04-09T02:35:22.438Z,91.73
2023-04-09T02:37:24.131Z,91.83
2023-04-09T02:41:27.135Z,91.92
2023-04-09T02:43:28.233Z,91.91
2023-04-09T02:47:31.471Z,92
2023-04-09T02:51:33.795Z,92.06
2023-04-09T02:53:35.766Z,92.12
2023-04-09T02:57:38.788Z,92.27
2023-04-09T03:01:41.856Z,92.68
2023-04-09T03:03:43.163Z,92.75
2023-04-09T03:07:46.057Z,92.84
2023-04-09T03:09:47.894Z,92.9
2023-04-09T03:11:48.910Z,92.96
2023-04-09T03:13:50.533Z,92.97
2023-04-09T03:17:54.133Z,93.1
2023-04-09T03:19:55.505Z,93.16
2023-04-09T03:21:57.221Z,93.21
2023-04-09T03:23:59.128Z,93.18
2023-04-09T03:26:00.772Z,93.16
2023-04-09T03:30:03.517Z,93.39
2023-04-09T03:34:05.683Z,93.5
2023-04-09T03:36:07.507Z,93.45
2023-04-09T03:40:10.033Z,93.3
2023-04-09T03:42:11.409Z,93.12
2023-04-09T03:46:24.833Z,93.03
2023-04-09T03:50:17.377Z,92.93
2023-04-09T03:52:19.074Z,92.91
2023-04-09T03:56:21.977Z,92.77
2023-04-09T04:00:24.923Z,92.52
2023-04-09T04:02:27.031Z,92.49
2023-04-09T04:06:29.802Z,92.5
2023-04-09T04:08:31.498Z,92.52
2023-04-09T04:12:34.211Z,92.54
2023-04-09T04:16:36.817Z,92.72
2023-04-09T04:18:38.315Z,92.67
2023-04-09T04:22:40.492Z,93.1
2023-04-09T04:24:42.390Z,93.21
2023-04-09T04:28:44.862Z,93.19
2023-04-09T04:32:47.359Z,93.1
2023-04-09T04:34:48.884Z,92.98
2023-04-09T04:38:51.625Z,92.83
2023-04-09T04:42:53.712Z,93.37
2023-04-09T04:44:55.125Z,93.49
2023-04-09T04:48:58.368Z,93.45
2023-04-09T04:51:00.230Z,93.58
2023-04-09T04:55:02.818Z,93.68
2023-04-09T04:59:06.555Z,93.67
2023-04-09T05:01:08.470Z,93.67
2023-04-09T05:05:11.542Z,93.78
2023-04-09T05:07:13.045Z,93.78
2023-04-09T05:11:15.813Z,93.58
2023-04-09T05:15:18.657Z,93.24
2023-04-09T05:17:19.764Z,93.27
2023-04-09T05:21:22.750Z,93.09
2023-04-09T05:25:25.490Z,92.99
2023-04-09T05:27:26.553Z,92.81
2023-04-09T05:31:28.996Z,92.21
2023-04-09T05:33:30.748Z,91.71
2023-04-09T05:35:32.615Z,92.34
2023-04-09T05:37:33.780Z,91.47
2023-04-09T05:41:35.734Z,89.68
2023-04-09T05:43:36.729Z,88.9
2023-04-09T05:45:37.733Z,87.64
2023-04-09T05:47:39.552Z,86.83
2023-04-09T05:49:41.114Z,85.04
2023-04-09T05:53:44.337Z,83.96
2023-04-09T05:57:47.043Z,82.21
2023-04-09T05:59:48.666Z,83.36
2023-04-09T06:03:51.689Z,84.82
2023-04-09T06:05:52.604Z,83.29
2023-04-09T06:09:55.389Z,82.67
2023-04-09T06:13:57.569Z,80.51
2023-04-09T06:15:59.185Z,82.86
2023-04-09T06:20:01.700Z,83.16
2023-04-09T06:24:04.787Z,82.15
2023-04-09T06:26:49.966Z,84.37
2023-04-09T06:30:52.914Z,82.32
2023-04-09T06:34:56.148Z,81.79
2023-04-09T06:36:57.703Z,81.26
2023-04-09T06:41:09.636Z,81.8
2023-04-09T06:43:01.854Z,80.19
2023-04-09T06:47:05.191Z,79.91
2023-04-09T06:51:07.794Z,81.55
2023-04-09T06:53:08.774Z,80.05
2023-04-09T06:57:12.068Z,80
2023-04-09T07:01:14.502Z,79.24
2023-04-09T07:03:16.376Z,79.81
2023-04-09T07:07:29.057Z,79.73
2023-04-09T07:09:20.743Z,79.42
2023-04-09T07:13:23.052Z,77.68
2023-04-09T07:17:26.734Z,77.45
2023-04-09T07:19:28.214Z,79.58
2023-04-09T07:23:30.341Z,76.84
2023-04-09T07:25:31.847Z,74.81
2023-04-09T07:29:34.018Z,75.16
2023-04-09T07:33:36.784Z,76.07
2023-04-09T07:35:38.348Z,76.18
2023-04-09T07:39:41.571Z,76.84
2023-04-09T07:43:44.884Z,74.48
2023-04-09T07:45:46.100Z,72.17
2023-04-09T07:49:48.288Z,72
2023-04-09T07:51:50.080Z,74.15
2023-04-09T07:53:51.578Z,74.61
2023-04-09T07:55:53.235Z,72.01
2023-04-09T07:59:56.027Z,72.08
2023-04-09T08:01:57.111Z,70.55
2023-04-09T08:03:58.025Z,72.39
2023-04-09T08:08:01.118Z,70.58
2023-04-09T08:12:03.899Z,70.57
2023-04-09T08:14:05.003Z,70.88
2023-04-09T08:16:05.898Z,71.42
2023-04-09T08:18:08.570Z,73.49
2023-04-09T08:22:11.654Z,74.89
2023-04-09T08:24:12.751Z,69.91
2023-04-09T08:28:15.079Z,70.7
2023-04-09T08:32:17.264Z,69.19
2023-04-09T08:34:18.788Z,69.49
2023-04-09T08:38:21.394Z,69.32
2023-04-09T08:42:23.955Z,68.31
2023-04-09T08:44:24.948Z,69.28
2023-04-09T08:48:27.550Z,68.77
2023-04-09T08:50:28.302Z,65.62
2023-04-09T08:54:31.042Z,66.47
2023-04-09T08:58:34.221Z,64.73
2023-04-09T09:00:35.817Z,67.41
2023-04-09T09:04:38.273Z,62.45
2023-04-09T09:06:39.209Z,64.65
2023-04-09T09:10:41.925Z,63.52
2023-04-09T09:14:44.617Z,59.56
2023-04-09T09:16:46.278Z,61.29
2023-04-09T09:20:49.315Z,63.42
2023-04-09T09:24:51.486Z,58.69
2023-04-09T09:26:52.833Z,59.43
2023-04-09T09:30:55.693Z,55.52
2023-04-09T09:32:57.187Z,61.88
2023-04-09T09:36:59.827Z,57.01
2023-04-09T09:41:02.055Z,56.99
2023-04-09T09:43:03.214Z,58.07
2023-04-09T09:47:05.474Z,60.06
2023-04-09T09:49:06.751Z,54.86
2023-04-09T09:53:09.393Z,53.7
2023-04-09T09:57:12.727Z,53.62
2023-04-09T09:59:13.716Z,51.24
2023-04-09T10:03:16.016Z,53.26
2023-04-09T10:05:17.408Z,51.11
2023-04-09T10:09:20.177Z,51.37
2023-04-09T10:13:23.222Z,50.53
2023-04-09T10:15:24.676Z,49.74
2023-04-09T10:19:26.910Z,50.16
2023-04-09T10:23:29.128Z,47.54
2023-04-09T10:25:30.213Z,49.95
2023-04-09T10:29:32.830Z,52.5
2023-04-09T10:31:33.919Z,47.4
2023-04-09T10:35:36.542Z,50.18
2023-04-09T10:39:38.593Z,50.22
2023-04-09T10:41:39.850Z,48.77
2023-04-09T10:45:42.775Z,50.32
2023-04-09T10:47:44.254Z,51.52
2023-04-09T10:51:46.957Z,44.16
2023-04-09T10:55:49.442Z,42.66
2023-04-09T10:57:50.574Z,48.79
2023-04-09T11:01:53.725Z,46.69
2023-04-09T11:05:56.224Z,48.34
2023-04-09T11:07:57.962Z,46.83
2023-04-09T11:12:00.606Z,50.47
2023-04-09T11:14:02.167Z,48.45
2023-04-09T11:18:04.556Z,47.76
2023-04-09T11:22:07.154Z,48.77
2023-04-09T11:24:08.476Z,49.18
2023-04-09T11:28:11.142Z,49.65
2023-04-09T11:30:13.247Z,50.95
2023-04-09T11:34:16.917Z,50.24
2023-04-09T11:38:20.353Z,50.2
2023-04-09T11:40:21.786Z,46.94
2023-04-09T11:44:23.915Z,44.55
2023-04-09T11:48:26.196Z,42.92
2023-04-09T11:50:27.182Z,49.3
2023-04-09T11:54:31.004Z,47.79
2023-04-09T11:56:32.825Z,45.31
2023-04-09T11:58:34.111Z,48.61
2023-04-09T12:00:35.216Z,45.09
2023-04-09T12:04:37.247Z,48.1
2023-04-09T12:06:38.452Z,46.89
2023-04-09T12:08:40.161Z,51.19
2023-04-09T12:10:41.263Z,50.19
2023-04-09T12:12:42.902Z,46.06
2023-04-09T12:16:45.084Z,43.93
2023-04-09T12:18:46.605Z,45.9
2023-04-09T12:20:47.568Z,43.61
2023-04-09T12:22:49.137Z,47.48
2023-04-09T12:26:51.504Z,43.78
2023-04-09T12:28:53.493Z,48.59
2023-04-09T12:32:56.042Z,48.49
2023-04-09T12:36:58.925Z,46.7
2023-04-09T12:39:00.072Z,48.36
2023-04-09T12:43:02.810Z,46.16
2023-04-09T12:47:05.931Z,46.97
2023-04-09T12:49:06.848Z,46.19
2023-04-09T12:53:10.419Z,47.42
2023-04-09T12:55:11.939Z,46.49
2023-04-09T12:59:14.014Z,46.31
2023-04-09T13:03:17.901Z,50.22
2023-04-09T13:05:17.642Z,45.81
2023-04-09T13:09:20.264Z,48.32
2023-04-09T13:14:07.114Z,46.69
2023-04-09T13:16:08.285Z,47.48
2023-04-09T13:20:11.226Z,49.49
2023-04-09T13:24:13.252Z,45.76
2023-04-09T13:26:14.810Z,46.66
2023-04-09T13:30:17.682Z,46.37
2023-04-09T13:32:18.620Z,44.38
2023-04-09T13:36:22.065Z,48.88
2023-04-09T13:40:24.413Z,49.62
2023-04-09T13:42:26.116Z,48.18
2023-04-09T13:46:28.677Z,48.43
2023-04-09T13:48:29.970Z,49.39
2023-04-09T13:52:32.994Z,46.45
2023-04-09T13:56:36.433Z,45.99
2023-04-09T13:58:38.104Z,47.29
2023-04-09T14:02:40.786Z,47.11
2023-04-09T14:06:43.722Z,49.93
2023-04-09T14:08:45.063Z,46.4
2023-04-09T14:12:48.122Z,45.49
2023-04-09T14:14:49.150Z,47.98
2023-04-09T14:16:50.716Z,46.96
2023-04-09T14:18:52.056Z,45.57
2023-04-09T14:22:54.094Z,48.26
2023-04-09T14:24:55.551Z,44.85
2023-04-09T14:26:56.604Z,44.5
2023-04-09T14:28:58.105Z,46.79
2023-04-09T14:30:59.705Z,47.3
2023-04-09T14:35:01.754Z,43.9
2023-04-09T14:37:03.537Z,44.44
2023-04-09T14:39:05.063Z,46.22
2023-04-09T14:41:06.216Z,47.46
2023-04-09T14:45:08.799Z,46.59
2023-04-09T14:47:10.094Z,46.07
2023-04-09T14:51:13.119Z,44.55
2023-04-09T14:55:15.040Z,44.79
2023-04-09T14:57:16.490Z,43.48
2023-04-09T15:01:19.358Z,43.24
2023-04-09T15:05:21.856Z,43.43
2023-04-09T15:07:25.045Z,43.29
2023-04-09T15:11:25.654Z,44.96
2023-04-09T15:13:27.158Z,45.06
2023-04-09T15:17:30.539Z,43.04
2023-04-09T15:21:32.682Z,42.94
2023-04-09T15:23:33.863Z,45.07
2023-04-09T15:27:35.683Z,42.75
2023-04-09T15:29:37.376Z,43.28
2023-04-09T15:33:40.025Z,40.03
2023-04-09T15:37:43.121Z,42.63
2023-04-09T15:39:44.546Z,41.29
2023-04-09T15:43:46.884Z,42.7
2023-04-09T15:47:49.929Z,43.48
2023-04-09T15:49:51.146Z,40.76
2023-04-09T15:53:53.962Z,41.21
2023-04-09T15:55:54.821Z,42.68
2023-04-09T15:57:56.209Z,42.54
2023-04-09T15:59:57.151Z,43.24
2023-04-09T16:03:59.766Z,39.78
2023-04-09T16:06:00.886Z,41.76
2023-04-09T16:08:02.336Z,39.85
2023-04-09T16:10:03.167Z,40.82
2023-04-09T16:12:04.214Z,41.55
2023-04-09T16:16:15.870Z,39.45
2023-04-09T16:18:07.826Z,41.55
2023-04-09T16:20:09.602Z,41.29
2023-04-09T16:22:10.821Z,43.63
2023-04-09T16:26:14.024Z,43.92
2023-04-09T16:28:15.483Z,43.27
2023-04-09T16:32:18.273Z,46.17
2023-04-09T16:36:22.404Z,43.79
2023-04-09T16:38:23.947Z,44.4
2023-04-09T16:42:26.292Z,44.62
2023-04-09T16:44:28.118Z,42.17
2023-04-09T16:48:31.755Z,45.01
2023-04-09T16:52:34.928Z,43.56
2023-04-09T16:54:36.946Z,45.4
2023-04-09T16:58:40.333Z,42.17
2023-04-09T17:02:42.365Z,44.3
2023-04-09T17:04:43.946Z,43.4
2023-04-09T17:08:46.514Z,44.02
2023-04-09T17:10:48.192Z,43.9
2023-04-09T17:12:49.348Z,44.89
2023-04-09T17:14:50.822Z,44.92
2023-04-09T17:18:53.531Z,46.28
2023-04-09T17:20:54.616Z,46.28
2023-04-09T17:22:55.946Z,46.77
2023-04-09T17:24:56.976Z,47.4
2023-04-09T17:26:58.630Z,48.05
2023-04-09T17:31:01.100Z,48.5
2023-04-09T17:35:04.196Z,49.88
2023-04-09T17:37:05.369Z,49.61
2023-04-09T17:41:08.362Z,50.07
2023-04-09T17:47:13.281Z,49.6
2023-04-09T17:51:15.605Z,51.45
2023-04-09T17:53:17.510Z,51.09
2023-04-09T17:55:19.010Z,51.08
2023-04-09T17:57:20.353Z,51.78
2023-04-09T18:01:23.019Z,53.95
2023-04-09T18:03:24.514Z,53.78
2023-04-09T18:07:26.931Z,55.09
2023-04-09T18:09:27.992Z,55.25
2023-04-09T18:13:31.156Z,54.84
2023-04-09T18:17:34.369Z,55.15
2023-04-09T18:19:35.395Z,55.65
2023-04-09T18:23:38.271Z,54.51
2023-04-09T18:25:40.147Z,54.87
2023-04-09T18:29:43.638Z,56.03
2023-04-09T18:33:46.750Z,57.02
2023-04-09T18:35:48.629Z,57.78
2023-04-09T18:39:51.089Z,58
2023-04-09T18:43:53.952Z,59.01
2023-04-09T18:45:55.541Z,58.99
2023-04-09T18:49:57.493Z,58.86
2023-04-09T18:51:58.709Z,58.88
2023-04-09T18:56:00.800Z,59.55
2023-04-09T19:00:03.379Z,59.87
2023-04-09T19:02:05.544Z,59.9
2023-04-09T19:06:08.120Z,60.25
2023-04-09T19:08:09.974Z,60.33
2023-04-09T19:12:12.850Z,61.06
2023-04-09T19:16:16.080Z,63.97
2023-04-09T19:18:17.414Z,64.71
2023-04-09T19:22:20.173Z,66
2023-04-09T19:26:22.939Z,66.67
2023-04-09T19:28:24.657Z,66.93
2023-04-09T19:32:26.784Z,68.74
2023-04-09T19:34:28.723Z,69.19
2023-04-09T19:38:31.422Z,69.38
2023-04-09T19:42:34.273Z,70.93
2023-04-09T19:44:35.301Z,71.39
2023-04-09T19:48:38.532Z,70.52
2023-04-09T19:50:39.932Z,70.41
2023-04-09T19:54:43.537Z,70.43
2023-04-09T19:59:30.884Z,70
2023-04-09T20:03:34.217Z,70.38
2023-04-09T20:05:35.708Z,71.17
2023-04-09T20:09:38.139Z,71.33
2023-04-09T20:11:39.142Z,71.64
2023-04-09T20:13:40.634Z,72.94
2023-04-09T20:15:41.763Z,72.66
2023-04-09T20:19:44.755Z,72.1
2023-04-09T20:21:46.518Z,73.3
2023-04-09T20:25:48.989Z,73.91
2023-04-09T20:27:49.998Z,74.37
2023-04-09T20:31:52.358Z,74.64
2023-04-09T20:35:54.681Z,75.75
2023-04-09T20:37:56.075Z,76.08
2023-04-09T20:41:59.209Z,76.8
2023-04-09T20:44:00.303Z,76.89
2023-04-09T20:48:03.999Z,77.62
2023-04-09T20:52:08.795Z,77.32
2023-04-09T20:54:08.836Z,78.42
2023-04-09T20:58:11.022Z,78.67
2023-04-09T21:02:14.363Z,79.19
2023-04-09T21:04:15.691Z,79.88
2023-04-09T21:08:17.688Z,79.95
2023-04-09T21:10:19.319Z,81.05
2023-04-09T21:14:22.618Z,81.32
2023-04-09T21:18:25.471Z,81.67
2023-04-09T21:20:27.292Z,81.28
2023-04-09T21:24:30.262Z,80.84
2023-04-09T21:26:38.601Z,80.19
2023-04-09T21:30:34.393Z,80.51
2023-04-09T21:34:37.442Z,80.52
2023-04-09T21:36:39.186Z,80.38
2023-04-09T21:40:41.728Z,80.86
2023-04-09T21:44:44.893Z,81.52
2023-04-09T21:46:46.057Z,81.65
2023-04-09T21:50:49.301Z,82.27
2023-04-09T21:52:50.561Z,82.64
2023-04-09T21:54:51.884Z,82.98
2023-04-09T21:56:53.476Z,84.06
2023-04-09T22:00:56.263Z,84.22
2023-04-09T22:02:58.291Z,84.08
2023-04-09T22:07:02.057Z,84.29
2023-04-09T22:09:04.113Z,84.49
2023-04-09T22:13:06.936Z,84.92
2023-04-09T22:17:09.444Z,84.65
2023-04-09T22:19:11.367Z,84.21
2023-04-09T22:23:14.794Z,84.21
2023-04-09T22:27:17.893Z,84.63
2023-04-09T22:29:19.300Z,84.42
2023-04-09T22:33:22.056Z,84.35
2023-04-09T22:35:23.377Z,84.66
2023-04-09T22:37:24.895Z,85.32
2023-04-09T22:39:25.968Z,85.49
2023-04-09T22:43:29.578Z,85.61
2023-04-09T22:45:30.707Z,85.91
2023-04-09T22:47:32.018Z,85.87
2023-04-09T22:49:33.172Z,86.12
2023-04-09T22:51:34.917Z,86.53
2023-04-09T22:55:37.680Z,86.56
2023-04-09T22:57:39.066Z,86.59
2023-04-09T22:59:41.159Z,86.9
2023-04-09T23:01:42.499Z,87.25
2023-04-09T23:05:45.099Z,87.63
2023-04-09T23:07:46.537Z,87.39
2023-04-09T23:11:49.488Z,87.11
2023-04-09T23:15:52.441Z,87.55
2023-04-09T23:17:53.724Z,88.26
2023-04-09T23:21:56.357Z,88.81
2023-04-09T23:26:00.018Z,88.38
2023-04-09T23:28:01.417Z,88.13
2023-04-09T23:32:04.540Z,88.47
2023-04-09T23:34:06.200Z,88.29
2023-04-09T23:38:09.563Z,88.67
2023-04-09T23:42:12.726Z,89.41
2023-04-09T23:44:14.241Z,89.66
2023-04-09T23:48:16.931Z,90.27
2023-04-09T23:50:18.803Z,90.41
2023-04-09T23:54:21.312Z,90.6
2023-04-09T23:58:24.528Z,90.25
